Time;durP1;ratioP1;P1;durP2;ratioP2;P2;SDS_P1;SDS_P2;PMS_P1;PMS_P2;Temp;Humidity;BMP_temperature;BMP_pressure;BME280_temperature;BME280_humidity;BME280_pressure;Samples;Min_cycle;Max_cycle;Signal;HPM_P1;HPM_P2
2022/05/09 00:02:20;;;;;;;;;23.00;21.50;;;;;16.78;56.71;101860.31;5026766;28;46233;-82
2022/05/09 00:04:46;;;;;;;;;18.25;17.75;;;;;16.66;56.59;101839.63;5029036;28;45539;-83
2022/05/09 00:07:12;;;;;;;;;22.00;20.75;;;;;16.68;56.79;101845.84;5028947;28;45485;-82
2022/05/09 00:09:37;;;;;;;;;22.25;21.50;;;;;16.84;56.68;101876.41;5028532;28;45693;-82
2022/05/09 00:12:03;;;;;;;;;26.50;25.50;;;;;16.92;56.42;101893.47;5028615;28;45550;-81
2022/05/09 00:14:28;;;;;;;;;20.25;19.00;;;;;16.72;56.81;101868.13;5029571;28;45545;-82
2022/05/09 00:16:53;;;;;;;;;22.00;22.00;;;;;16.72;56.72;101865.47;5028147;28;45385;-83
2022/05/09 00:19:20;;;;;;;;;22.50;22.00;;;;;16.71;56.75;101861.00;5030061;28;45483;-83
2022/05/09 00:21:48;;;;;;;;;22.25;21.75;;;;;16.86;56.41;101885.34;5032298;28;45589;-82
2022/05/09 00:24:15;;;;;;;;;22.00;20.75;;;;;16.71;56.76;101864.56;5032396;28;45437;-82
2022/05/09 00:26:45;;;;;;;;;18.25;17.00;;;;;16.56;56.48;101844.66;5031744;28;46142;-83
2022/05/09 00:29:12;;;;;;;;;18.25;18.00;;;;;16.83;56.42;101887.91;5031984;28;46279;-82
2022/05/09 00:31:39;;;;;;;;;20.25;19.25;;;;;16.60;56.30;101850.09;5031428;28;45922;-82
2022/05/09 00:34:05;;;;;;;;;20.00;20.00;;;;;16.41;56.63;101830.09;5031692;28;45613;-82
2022/05/09 00:36:31;;;;;;;;;22.00;20.50;;;;;16.51;56.97;101841.88;5032083;28;45457;-82
2022/05/09 00:38:58;;;;;;;;;22.25;20.00;;;;;16.48;56.84;101836.47;5030281;28;47686;-83
2022/05/09 00:41:39;;;;;;;;;18.75;18.00;;;;;16.51;56.82;101850.72;5030322;28;45556;-82
2022/05/09 00:44:07;;;;;;;;;19.75;19.00;;;;;16.74;56.93;101888.53;5031843;28;45580;-82
2022/05/09 00:46:33;;;;;;;;;21.75;20.25;;;;;16.61;56.65;101864.25;5031406;28;45553;-81
2022/05/09 00:49:26;;;;;;;;;18.75;18.25;;;;;16.69;56.53;101883.91;5031034;28;45486;-82
2022/05/09 00:52:15;;;;;;;;;19.00;18.25;;;;;16.38;56.57;101845.91;5031343;28;46178;-82
2022/05/09 00:54:46;;;;;;;;;18.50;16.00;;;;;16.42;56.63;101866.38;5031096;28;45291;-83
2022/05/09 00:57:22;;;;;;;;;18.50;17.50;;;;;16.32;56.50;101840.44;5031760;28;45275;-83
2022/05/09 00:59:54;;;;;;;;;16.50;15.50;;;;;16.41;56.28;101842.47;5031388;28;45761;-82
2022/05/09 01:02:20;;;;;;;;;18.00;17.00;;;;;16.27;56.53;101823.50;5031041;28;45417;-82
2022/05/09 01:04:59;;;;;;;;;19.00;18.00;;;;;16.60;56.30;101884.59;5031687;28;45319;-82
2022/05/09 01:07:25;;;;;;;;;16.50;15.25;;;;;16.46;56.26;101864.72;5031805;28;45631;-83
2022/05/09 01:09:50;;;;;;;;;18.00;17.00;;;;;16.54;56.45;101871.13;5030791;28;46568;-82
2022/05/09 01:12:29;;;;;;;;;19.50;18.25;;;;;16.33;56.35;101834.28;5031308;28;45400;-82
2022/05/09 01:14:55;;;;;;;;;17.50;17.00;;;;;16.28;56.19;101827.94;5030138;28;45369;-82
2022/05/09 01:17:23;;;;;;;;;18.00;17.25;;;;;16.18;56.20;101817.91;5030515;28;45415;-82
2022/05/09 01:19:52;;;;;;;;;16.25;16.25;;;;;16.48;56.04;101871.84;5029494;28;47321;-82
2022/05/09 01:22:29;;;;;;;;;16.50;16.50;;;;;16.60;55.48;101881.94;5031869;28;46152;-82
2022/05/09 01:25:02;;;;;;;;;16.75;16.00;;;;;16.65;55.28;101882.97;5031065;28;45796;-82
2022/05/09 01:27:28;;;;;;;;;13.50;13.25;;;;;16.58;55.06;101858.84;5030156;28;45460;-82
2022/05/09 01:30:08;;;;;;;;;14.75;14.25;;;;;16.46;54.69;101835.53;5030526;28;45512;-82
2022/05/09 01:32:57;;;;;;;;;14.50;14.50;;;;;16.74;54.74;101883.22;5030189;28;45481;-82
2022/05/09 01:35:22;;;;;;;;;14.00;13.75;;;;;16.76;54.21;101878.88;5032343;28;45872;-83
2022/05/09 01:37:56;;;;;;;;;12.00;12.00;;;;;16.60;54.84;101858.03;5031210;28;45587;-82
2022/05/09 01:40:21;;;;;;;;;16.00;15.25;;;;;16.52;54.88;101839.25;5029795;28;47724;-82
2022/05/09 01:42:47;;;;;;;;;12.00;12.00;;;;;16.55;54.64;101848.13;5031043;28;45594;-83
2022/05/09 01:45:13;;;;;;;;;14.75;12.75;;;;;16.34;54.86;101817.50;5031314;28;45370;-82
2022/05/09 01:50:23;;;;;;;;;14.00;13.75;;;;;16.61;54.25;101872.22;5031310;28;45502;-83
2022/05/09 01:52:49;;;;;;;;;15.25;15.00;;;;;16.64;54.45;101869.63;5029142;28;45610;-82
2022/05/09 01:55:15;;;;;;;;;13.75;13.75;;;;;16.30;54.54;101814.69;5029401;28;45358;-82
2022/05/09 01:57:40;;;;;;;;;13.75;13.75;;;;;16.68;54.04;101871.50;5030851;28;45569;-84
2022/05/09 02:00:07;;;;;;;;;16.75;16.25;;;;;16.65;54.38;101866.09;5030648;28;45424;-82
2022/05/09 02:02:33;;;;;;;;;15.00;14.25;;;;;16.39;54.57;101822.94;5044879;28;46340;-83
2022/05/09 02:04:58;;;;;;;;;12.75;12.25;;;;;16.67;54.65;101885.66;5030716;28;45517;-82
2022/05/09 02:07:26;;;;;;;;;14.33;12.67;;;;;16.40;54.63;101837.97;5030868;28;45420;-82
2022/05/09 02:09:52;;;;;;;;;13.00;12.25;;;;;16.25;54.62;101818.16;5030137;28;45479;-82
2022/05/09 02:12:18;;;;;;;;;14.75;14.75;;;;;16.50;54.12;101854.22;5029219;28;45436;-82
2022/05/09 02:14:44;;;;;;;;;10.50;9.75;;;;;16.32;53.96;101839.53;5030728;28;45673;-82
2022/05/09 02:17:11;;;;;;;;;13.50;13.50;;;;;16.50;53.69;101862.19;5029573;28;45471;-83
2022/05/09 02:19:37;;;;;;;;;11.50;11.50;;;;;16.56;53.57;101863.22;5030241;28;45764;-82
2022/05/09 02:22:03;;;;;;;;;13.50;11.75;;;;;16.41;54.25;101845.13;5029799;28;45508;-82
2022/05/09 02:24:29;;;;;;;;;11.25;10.50;;;;;16.32;53.61;101832.47;5045804;28;45380;-81
2022/05/09 02:26:55;;;;;;;;;12.50;12.00;;;;;16.22;53.80;101819.81;5029963;28;45527;-82
2022/05/09 02:29:21;;;;;;;;;12.25;12.25;;;;;16.25;54.15;101833.13;5030686;28;45525;-81
2022/05/09 02:31:47;;;;;;;;;13.25;12.00;;;;;16.30;53.74;101849.19;5028810;28;45437;-81
2022/05/09 02:34:13;;;;;;;;;9.25;9.00;;;;;16.42;53.76;101869.03;5030522;28;45420;-82
2022/05/09 02:36:39;;;;;;;;;12.50;10.75;;;;;16.05;53.58;101808.69;5030171;28;45542;-82
2022/05/09 02:39:05;;;;;;;;;10.00;10.00;;;;;16.39;53.72;101871.59;5029523;28;45550;-82
2022/05/09 02:41:30;;;;;;;;;10.25;10.00;;;;;16.14;54.02;101829.28;5029193;28;45698;-82
2022/05/09 02:43:55;;;;;;;;;9.50;8.75;;;;;16.08;53.82;101816.75;5029711;28;45671;-82
2022/05/09 02:46:21;;;;;;;;;10.25;9.25;;;;;16.09;53.66;101831.81;5029381;28;45798;-82
2022/05/09 02:48:47;;;;;;;;;10.00;10.00;;;;;16.08;53.50;101832.66;5029859;28;46156;-82
2022/05/09 02:51:13;;;;;;;;;6.50;6.50;;;;;16.05;53.60;101821.06;5030403;28;45622;-82
2022/05/09 02:53:39;;;;;;;;;9.50;9.25;;;;;15.98;53.76;101818.22;5029895;28;45757;-82
2022/05/09 02:56:05;;;;;;;;;9.50;9.00;;;;;15.98;53.63;101807.63;5029801;28;45520;-82
2022/05/09 02:58:30;;;;;;;;;9.00;8.75;;;;;16.12;53.52;101834.56;5028141;28;47991;-82
2022/05/09 03:00:56;;;;;;;;;11.50;10.75;;;;;15.90;53.79;101787.94;5027339;28;45353;-82
2022/05/09 03:06:06;;;;;;;;;9.00;9.00;;;;;15.89;53.37;101794.09;5029900;28;45586;-82
2022/05/09 03:08:31;;;;;;;;;11.00;10.75;;;;;15.85;53.48;101788.66;5029390;28;46275;-82
2022/05/09 03:10:57;;;;;;;;;12.00;10.00;;;;;15.85;54.06;101793.94;5027978;28;45544;-82
2022/05/09 03:13:22;;;;;;;;;12.00;11.50;;;;;16.07;54.11;101838.81;5030085;28;45427;-82
2022/05/09 03:15:49;;;;;;;;;9.25;9.25;;;;;16.01;53.77;101830.69;5028978;28;45395;-82
2022/05/09 03:18:20;;;;;;;;;9.00;8.25;;;;;15.97;54.37;101834.09;5028537;28;45547;-82
2022/05/09 03:20:45;;;;;;;;;9.50;8.00;;;;;15.81;54.46;101827.44;5029305;28;46047;-82
2022/05/09 03:23:11;;;;;;;;;10.50;10.50;;;;;15.70;54.48;101811.19;5029289;28;46083;-82
2022/05/09 03:25:38;;;;;;;;;10.25;7.75;;;;;15.85;54.79;101841.66;5029744;28;45631;-83
2022/05/09 03:28:06;;;;;;;;;11.50;11.50;;;;;15.63;54.25;101825.13;5029244;28;47436;-82
2022/05/09 03:30:32;;;;;;;;;10.25;10.00;;;;;15.64;54.21;101828.66;5029057;28;45447;-83
2022/05/09 03:32:57;;;;;;;;;9.00;9.00;;;;;15.51;54.49;101799.94;5028802;28;45405;-83
2022/05/09 03:35:23;;;;;;;;;10.25;9.25;;;;;15.64;54.39;101828.66;5030310;28;45808;-84
2022/05/09 03:37:48;;;;;;;;;10.25;10.25;;;;;15.71;54.24;101839.53;5028952;28;45604;-82
2022/05/09 03:40:15;;;;;;;;;11.50;10.75;;;;;15.42;54.91;101795.28;5029114;28;45570;-82
2022/05/09 03:42:41;;;;;;;;;9.00;8.00;;;;;15.64;55.07;101840.16;5029154;28;45713;-82
2022/05/09 03:45:07;;;;;;;;;9.00;9.00;;;;;15.62;55.24;101844.50;5028836;28;45394;-82
2022/05/09 03:47:32;;;;;;;;;8.50;8.50;;;;;15.43;55.31;101826.22;5028419;28;45444;-82
2022/05/09 03:49:58;;;;;;;;;9.75;9.50;;;;;15.25;55.42;101805.31;5028988;28;45772;-82
2022/05/09 03:52:26;;;;;;;;;9.50;8.50;;;;;15.23;55.33;101810.56;5029727;28;45386;-82
2022/05/09 03:54:52;;;;;;;;;12.00;11.50;;;;;15.14;55.87;101809.38;5032806;28;45437;-85
2022/05/09 03:57:17;;;;;;;;;9.00;8.25;;;;;15.08;55.95;101811.81;5032544;28;45474;-83
2022/05/09 03:59:42;;;;;;;;;9.00;8.00;;;;;15.07;55.74;101813.53;5031780;28;45524;-82
2022/05/09 04:02:10;;;;;;;;;8.50;8.50;;;;;15.22;55.36;101839.63;5031899;28;45539;-81
2022/05/09 04:04:35;;;;;;;;;10.00;9.50;;;;;14.99;55.11;101793.88;5032886;28;45486;-82
2022/05/09 04:07:00;;;;;;;;;9.50;9.25;;;;;14.85;55.28;101769.56;5031920;28;45768;-82
2022/05/09 04:09:26;;;;;;;;;12.00;10.00;;;;;15.25;54.95;101838.84;5033270;28;45656;-82
2022/05/09 04:11:51;;;;;;;;;11.00;10.50;;;;;15.08;55.04;101801.22;5030740;28;45458;-82
2022/05/09 04:16:49;;;;;;;;;9.00;9.00;;;;;15.05;55.37;101786.13;5032329;28;45586;-83
2022/05/09 04:17:03;;;;;;;;;10.25;9.25;;;;;15.19;55.45;101816.59;5031068;28;46508;-83
2022/05/09 04:19:28;;;;;;;;;10.50;10.00;;;;;15.13;55.61;101804.94;5032264;28;45402;-83
2022/05/09 04:21:54;;;;;;;;;8.25;8.25;;;;;15.19;55.45;101815.72;5031719;28;45496;-82
2022/05/09 04:24:20;;;;;;;;;11.00;11.00;;;;;15.31;55.53;101844.34;5033009;28;45410;-82
2022/05/09 04:26:45;;;;;;;;;12.25;11.25;;;;;15.26;55.85;101836.22;5031726;28;46029;-82
2022/05/09 04:29:11;;;;;;;;;11.75;11.75;;;;;15.30;55.92;101856.69;5030355;28;46139;-82
2022/05/09 04:31:36;;;;;;;;;11.25;11.25;;;;;14.95;55.97;101810.50;5031728;28;45586;-83
2022/05/09 04:34:01;;;;;;;;;12.00;10.75;;;;;14.87;56.14;101796.97;5032044;28;45510;-82
2022/05/09 04:36:28;;;;;;;;;11.00;11.00;;;;;15.22;56.09;101859.09;5031836;28;45824;-82
2022/05/09 04:38:54;;;;;;;;;13.75;12.00;;;;;15.23;56.12;101858.25;5032040;28;45847;-82
2022/05/09 04:41:21;;;;;;;;;11.00;10.75;;;;;15.10;56.49;101836.59;5032226;28;45504;-83
2022/05/09 04:43:48;;;;;;;;;12.50;11.75;;;;;14.75;56.72;101774.50;5031501;28;45486;-83
2022/05/09 04:46:14;;;;;;;;;9.50;8.50;;;;;15.14;56.53;101849.09;5031664;28;45511;-82
2022/05/09 04:48:42;;;;;;;;;7.75;7.75;;;;;15.03;56.88;101835.50;5031596;28;46036;-82
2022/05/09 04:51:08;;;;;;;;;11.25;11.25;;;;;14.84;57.27;101811.88;5031680;28;45405;-83
2022/05/09 04:53:34;;;;;;;;;12.00;10.25;;;;;15.00;56.48;101834.47;5031802;28;45597;-83
2022/05/09 04:56:00;;;;;;;;;11.25;10.50;;;;;14.90;56.87;101815.63;5031488;28;45886;-83
2022/05/09 04:58:26;;;;;;;;;12.50;10.75;;;;;14.81;56.70;101801.19;5029862;28;45644;-82
2022/05/09 05:00:52;;;;;;;;;13.50;12.75;;;;;14.87;56.08;101793.44;5029837;28;45556;-83
2022/05/09 05:03:18;;;;;;;;;12.00;10.75;;;;;15.26;56.80;101854.78;5031907;28;45590;-83
2022/05/09 05:05:44;;;;;;;;;12.00;11.75;;;;;15.29;56.48;101856.63;5030301;28;46711;-84
2022/05/09 05:08:13;;;;;;;;;12.25;10.00;;;;;14.99;56.59;101792.97;5031722;28;45900;-82
2022/05/09 05:10:38;;;;;;;;;13.25;11.75;;;;;15.14;56.70;101820.84;5031945;28;45515;-82
2022/05/09 05:13:03;;;;;;;;;13.00;12.00;;;;;15.28;56.58;101839.84;5030947;28;45378;-82
2022/05/09 05:15:31;;;;;;;;;15.25;12.50;;;;;15.18;56.29;101816.56;5031077;28;47208;-83
2022/05/09 05:17:56;;;;;;;;;12.00;11.00;;;;;15.06;55.94;101792.31;5030421;28;45933;-82
2022/05/09 05:20:22;;;;;;;;;12.25;11.25;;;;;15.41;56.07;101849.09;5031789;28;45370;-83
2022/05/09 05:22:49;;;;;;;;;14.00;13.25;;;;;15.37;56.33;101837.50;5031051;28;45767;-82
2022/05/09 05:25:18;;;;;;;;;12.75;12.25;;;;;15.43;56.01;101836.81;5031229;28;46353;-82
2022/05/09 05:27:44;;;;;;;;;12.75;12.50;;;;;15.29;56.08;101817.81;5031164;28;45564;-82
2022/05/09 05:30:10;;;;;;;;;16.00;15.75;;;;;15.18;55.82;101776.84;5030596;28;45471;-83
2022/05/09 05:32:37;;;;;;;;;12.50;12.50;;;;;15.47;55.85;101829.00;5030701;28;45718;-81
2022/05/09 05:35:07;;;;;;;;;13.50;12.50;;;;;15.68;56.08;101862.38;5028968;28;48005;-82
2022/05/09 05:37:33;;;;;;;;;17.00;15.00;;;;;15.42;56.04;101813.81;5030388;28;45443;-83
2022/05/09 05:40:00;;;;;;;;;13.75;13.75;;;;;15.58;55.81;101839.03;5030916;28;45390;-82
2022/05/09 05:42:26;;;;;;;;;16.75;14.00;;;;;15.77;56.28;101865.31;5031501;28;46116;-82
2022/05/09 05:44:51;;;;;;;;;16.75;16.00;;;;;15.66;56.08;101837.53;5029089;28;47286;-84
2022/05/09 05:47:18;;;;;;;;;17.67;14.67;;;;;15.78;55.84;101853.84;5030254;28;47888;-82
2022/05/09 05:49:44;;;;;;;;;13.75;13.00;;;;;15.49;55.45;101802.53;5030887;28;45978;-82
2022/05/09 05:52:11;;;;;;;;;11.75;11.75;;;;;15.88;55.58;101873.59;5030600;28;45783;-82
2022/05/09 05:54:40;;;;;;;;;16.50;14.50;;;;;15.91;55.47;101865.72;5031000;28;46574;-84
2022/05/09 05:57:14;;;;;;;;;13.00;12.00;;;;;15.92;55.30;101865.78;5031039;28;45615;-82
2022/05/09 05:59:40;;;;;;;;;12.50;11.50;;;;;15.75;55.36;101827.22;5030523;28;45542;-83
2022/05/09 06:02:06;;;;;;;;;12.50;12.50;;;;;15.79;55.49;101837.09;5028436;28;45309;-83
2022/05/09 06:04:31;;;;;;;;;13.25;13.00;;;;;15.97;55.05;101852.66;5030981;28;45509;-82
2022/05/09 06:06:56;;;;;;;;;13.67;13.00;;;;;15.71;54.80;101807.72;5030101;28;45465;-82
2022/05/09 06:09:22;;;;;;;;;15.75;15.00;;;;;15.94;54.73;101837.53;5029750;28;45550;-82
2022/05/09 06:11:47;;;;;;;;;17.50;14.50;;;;;15.62;54.70;101787.94;5030396;28;45814;-84
2022/05/09 06:14:12;;;;;;;;;14.50;13.00;;;;;16.10;54.82;101867.19;5030117;28;46085;-82
2022/05/09 06:16:38;;;;;;;;;14.25;13.50;;;;;15.91;54.62;101831.25;5028987;28;45524;-82
2022/05/09 06:19:04;;;;;;;;;18.00;15.25;;;;;15.92;54.58;101827.75;5028552;28;45584;-82
2022/05/09 06:21:33;;;;;;;;;17.00;14.50;;;;;15.89;54.61;101819.72;5030621;28;45441;-83
2022/05/09 06:23:59;;;;;;;;;15.25;15.25;;;;;16.16;54.80;101855.00;5030335;28;45673;-82
2022/05/09 06:26:25;;;;;;;;;15.50;14.25;;;;;16.28;54.71;101869.47;5030931;28;45402;-83
2022/05/09 06:28:51;;;;;;;;;17.25;15.00;;;;;16.04;54.84;101812.19;5030199;28;45425;-83
2022/05/09 06:31:17;;;;;;;;;16.25;15.00;;;;;16.07;54.39;101817.63;5029949;28;45507;-83
2022/05/09 06:33:43;;;;;;;;;17.25;16.75;;;;;16.25;54.19;101847.34;5029744;28;45555;-84
2022/05/09 06:36:08;;;;;;;;;14.00;13.75;;;;;16.29;54.30;101847.41;5029923;28;45504;-83
2022/05/09 06:38:34;;;;;;;;;14.25;13.50;;;;;16.39;54.49;101862.72;5028882;28;45482;-83
2022/05/09 06:41:01;;;;;;;;;18.00;16.25;;;;;16.50;54.57;101875.47;5030288;28;45688;-83
2022/05/09 06:43:28;;;;;;;;;16.00;15.25;;;;;16.40;53.87;101841.56;5030147;28;45499;-82
2022/05/09 06:45:53;;;;;;;;;19.00;16.00;;;;;16.67;53.94;101877.69;5029550;28;45707;-84
2022/05/09 06:48:19;;;;;;;;;20.25;19.00;;;;;16.70;53.59;101886.66;5045178;28;45481;-83
2022/05/09 06:50:45;;;;;;;;;18.50;17.25;;;;;16.23;53.74;101811.00;5029638;28;45502;-83
2022/05/09 06:53:12;;;;;;;;;19.67;18.00;;;;;16.75;53.87;101892.13;5029978;28;46180;-82
2022/05/09 06:55:37;;;;;;;;;21.50;17.50;;;;;16.49;53.72;101847.09;5030209;28;45913;-82
2022/05/09 06:58:08;;;;;;;;;17.00;15.75;;;;;16.84;53.65;101895.00;5029682;28;45563;-84
2022/05/09 07:00:33;;;;;;;;;16.25;16.25;;;;;16.47;53.77;101819.63;5029996;28;45369;-83
2022/05/09 07:02:59;;;;;;;;;19.00;18.00;;;;;16.88;53.67;101885.38;5028942;28;46052;-84
2022/05/09 07:05:24;;;;;;;;;18.75;15.75;;;;;16.52;53.68;101809.16;5029845;28;46018;-82
2022/05/09 07:07:50;;;;;;;;;18.25;17.25;;;;;16.77;53.52;101846.16;5029566;28;45944;-83
2022/05/09 07:10:17;;;;;;;;;19.00;18.00;;;;;16.90;53.68;101865.09;5028667;28;45302;-83
2022/05/09 07:12:44;;;;;;;;;20.50;19.00;;;;;17.12;53.43;101899.28;5029034;28;45406;-83
2022/05/09 07:15:11;;;;;;;;;21.75;20.50;;;;;16.84;53.50;101831.25;5029386;28;45464;-82
2022/05/09 07:17:36;;;;;;;;;18.00;17.25;;;;;17.06;53.87;101864.63;5029210;28;45510;-83
2022/05/09 07:20:03;;;;;;;;;17.00;17.00;;;;;16.96;53.92;101834.25;5029301;28;45601;-82
2022/05/09 07:22:29;;;;;;;;;21.75;19.75;;;;;17.05;53.37;101843.34;5029667;28;46605;-83
2022/05/09 07:24:54;;;;;;;;;18.00;15.00;;;;;17.03;53.77;101828.22;5029458;28;45588;-82
2022/05/09 07:27:20;;;;;;;;;19.67;19.00;;;;;17.16;53.53;101844.50;5028771;28;45430;-83
2022/05/09 07:29:45;;;;;;;;;20.25;17.25;;;;;17.41;53.40;101873.47;5029208;28;45376;-82
2022/05/09 07:32:10;;;;;;;;;18.67;17.33;;;;;17.24;53.24;101842.91;5028457;28;46019;-83
2022/05/09 07:34:35;;;;;;;;;21.00;21.00;;;;;17.30;53.05;101845.75;5028947;28;45546;-85
2022/05/09 07:37:01;;;;;;;;;22.25;20.75;;;;;17.24;53.02;101835.88;5027853;28;45678;-82
2022/05/09 07:39:26;;;;;;;;;20.00;18.50;;;;;17.60;53.05;101887.22;5029791;28;45450;-82
2022/05/09 07:41:51;;;;;;;;;23.67;23.33;;;;;17.52;52.68;101865.75;5028400;28;46048;-84
2022/05/09 07:44:17;;;;;;;;;21.33;19.33;;;;;17.59;53.69;101872.13;5029507;28;45603;-82
2022/05/09 07:46:42;;;;;;;;;19.50;18.75;;;;;17.38;53.21;101829.97;5028471;28;45244;-83
2022/05/09 07:49:07;;;;;;;;;20.33;19.00;;;;;17.54;53.10;101840.13;5028817;28;45918;-82
2022/05/09 07:51:37;;;;;;;;;22.00;19.75;;;;;17.53;52.69;101839.19;5029224;28;45377;-83
2022/05/09 07:54:03;;;;;;;;;22.00;21.00;;;;;17.85;52.95;101878.09;5027534;28;45773;-82
2022/05/09 07:56:28;;;;;;;;;22.25;21.75;;;;;17.73;52.76;101852.09;5028970;28;45489;-83
2022/05/09 07:58:53;;;;;;;;;22.75;21.75;;;;;17.80;52.95;101856.72;5028863;28;45838;-83
2022/05/09 08:01:18;;;;;;;;;18.50;18.00;;;;;17.83;53.69;101855.88;5028381;28;46337;-82
2022/05/09 08:03:44;;;;;;;;;20.33;20.00;;;;;17.69;53.15;101818.31;5028292;28;45240;-84
2022/05/09 08:06:09;;;;;;;;;20.75;20.25;;;;;17.89;52.70;101846.28;5029073;28;45949;-84
2022/05/09 08:08:36;;;;;;;;;21.25;19.25;;;;;17.99;53.12;101866.91;5028979;28;45465;-83
2022/05/09 08:11:02;;;;;;;;;21.75;18.25;;;;;18.07;53.17;101874.13;5028513;28;45629;-82
2022/05/09 08:13:33;;;;;;;;;24.50;23.50;;;;;17.72;52.69;101808.63;5029033;28;45692;-83
2022/05/09 08:16:00;;;;;;;;;26.75;26.25;;;;;17.94;53.00;101839.31;5028340;28;45303;-83
2022/05/09 08:18:26;;;;;;;;;21.50;19.25;;;;;18.25;52.37;101888.75;5027821;28;45532;-82
2022/05/09 08:20:53;;;;;;;;;23.00;21.50;;;;;18.15;52.65;101867.22;5028713;28;45567;-83
2022/05/09 08:23:19;;;;;;;;;21.50;21.50;;;;;18.04;52.76;101837.75;5029374;28;45771;-82
2022/05/09 08:25:49;;;;;;;;;22.75;21.50;;;;;17.96;52.71;101810.97;5028431;28;45459;-83
2022/05/09 08:28:16;;;;;;;;;22.75;22.25;;;;;18.40;52.16;101890.84;5028828;28;45384;-82
2022/05/09 08:30:43;;;;;;;;;25.25;22.00;;;;;18.40;52.60;101879.28;5028175;28;46058;-83
2022/05/09 08:33:18;;;;;;;;;20.50;19.00;;;;;18.51;52.41;101893.72;5027505;28;45928;-82
2022/05/09 08:35:45;;;;;;;;;25.25;23.25;;;;;18.39;52.62;101856.22;5028474;28;45461;-84
2022/05/09 08:38:11;;;;;;;;;27.00;25.25;;;;;18.52;51.65;101872.47;5028688;28;45471;-82
2022/05/09 08:41:07;;;;;;;;;25.75;23.50;;;;;18.64;51.75;101884.22;5030391;28;46469;-83
2022/05/09 08:44:02;;;;;;;;;28.50;25.75;;;;;18.69;52.43;101894.13;5032087;28;45530;-81
2022/05/09 08:46:38;;;;;;;;;27.00;26.25;;;;;18.74;52.26;101894.22;5031615;28;45426;-83
2022/05/09 08:49:32;;;;;;;;;22.75;22.25;;;;;18.77;52.68;101887.19;5031355;28;45716;-82
2022/05/09 08:52:18;;;;;;;;;24.25;24.00;;;;;18.81;52.32;101883.69;5031607;28;45472;-83
2022/05/09 08:54:44;;;;;;;;;31.50;29.50;;;;;18.73;52.14;101869.34;5031741;28;45314;-83
2022/05/09 08:57:16;;;;;;;;;26.00;25.75;;;;;18.54;52.34;101820.13;5031367;28;45457;-82
2022/05/09 08:59:50;;;;;;;;;26.50;25.25;;;;;18.73;52.56;101839.16;5031715;28;45485;-83
2022/05/09 09:02:25;;;;;;;;;26.50;25.50;;;;;18.83;52.11;101840.22;5031286;28;45555;-83
2022/05/09 09:04:56;;;;;;;;;29.50;26.75;;;;;18.87;52.02;101834.97;5031674;28;45991;-82
2022/05/09 09:07:35;;;;;;;;;28.75;27.50;;;;;19.15;51.51;101863.00;5032194;28;45370;-82
2022/05/09 09:10:30;;;;;;;;;32.50;30.25;;;;;19.22;51.81;101874.69;5031194;28;45420;-83
2022/05/09 09:13:19;;;;;;;;;28.00;27.00;;;;;19.29;51.70;101876.56;5011473;28;46166;-83
2022/05/09 09:16:11;;;;;;;;;28.25;27.25;;;;;19.36;51.51;101865.16;5009418;28;46419;-82
2022/05/09 09:18:40;;;;;;;;;25.00;23.75;;;;;19.45;51.91;101870.59;5010492;28;45368;-82
2022/05/09 09:21:22;;;;;;;;;26.25;25.00;;;;;19.32;51.44;101837.53;5010385;28;45384;-85
2022/05/09 09:24:00;;;;;;;;;25.75;25.75;;;;;19.56;51.10;101863.69;5011790;28;46648;-84
2022/05/09 09:27:10;;;;;;;;;26.25;25.25;;;;;19.45;51.53;101827.03;5011338;28;45941;-85
2022/05/09 09:29:45;;;;;;;;;29.00;27.50;;;;;19.66;50.86;101847.88;5002467;28;45729;-83
2022/05/09 09:32:18;;;;;;;;;29.00;26.75;;;;;19.75;50.20;101851.56;5010076;28;45409;-85
2022/05/09 09:35:01;;;;;;;;;26.25;25.75;;;;;19.62;50.60;101812.25;5011135;28;45449;-85
2022/05/09 09:37:35;;;;;;;;;26.25;25.25;;;;;19.92;50.44;101857.13;5010327;28;45841;-82
2022/05/09 09:40:05;;;;;;;;;28.00;27.00;;;;;20.00;50.81;101859.88;5010876;28;45372;-84
2022/05/09 09:42:30;;;;;;;;;32.25;31.50;;;;;19.86;50.30;101830.38;5010185;28;45597;-84
2022/05/09 09:44:58;;;;;;;;;28.75;28.00;;;;;19.78;50.58;101794.69;5010690;28;46562;-82
2022/05/09 09:47:26;;;;;;;;;24.75;23.75;;;;;20.24;50.91;101868.22;5016123;28;45846;-82
2022/05/09 09:50:13;;;;;;;;;29.75;26.75;;;;;20.34;50.63;101866.56;5011077;28;45492;-83
2022/05/09 09:52:43;;;;;;;;;27.25;25.25;;;;;20.43;49.71;101861.34;5011186;28;45624;-83
2022/05/09 09:55:34;;;;;;;;;31.50;28.75;;;;;20.49;49.67;101866.81;5010800;28;46073;-82
2022/05/09 09:58:26;;;;;;;;;28.25;24.50;;;;;20.55;49.06;101860.66;5010658;28;46024;-83
2022/05/09 10:01:07;;;;;;;;;30.00;27.00;;;;;20.61;49.03;101850.91;5009114;28;45374;-83
2022/05/09 10:03:38;;;;;;;;;27.25;26.75;;;;;20.68;49.74;101848.31;5010568;28;45578;-83
2022/05/09 10:06:14;;;;;;;;;26.25;25.25;;;;;20.75;48.80;101836.81;5010874;28;46268;-85
2022/05/09 10:08:40;;;;;;;;;29.00;26.50;;;;;20.36;48.65;101753.56;5010826;28;45967;-82
2022/05/09 10:11:22;;;;;;;;;26.50;26.25;;;;;20.86;48.60;101835.13;5014808;28;45455;-84
2022/05/09 10:13:59;;;;;;;;;27.25;26.75;;;;;20.80;48.13;101811.94;5030690;28;45438;-83
2022/05/09 10:16:30;;;;;;;;;24.75;23.75;;;;;20.99;48.10;101831.72;5030253;28;45450;-82
2022/05/09 10:18:58;;;;;;;;;25.25;24.00;;;;;20.94;48.29;101800.47;5028475;28;45939;-83
2022/05/09 10:24:55;;;;;;;;;23.00;21.50;;;;;21.12;48.89;101796.16;5030507;28;45296;-82
2022/05/09 10:27:20;;;;;;;;;24.00;23.50;;;;;21.40;47.40;101828.50;5030517;28;46193;-82
2022/05/09 10:29:48;;;;;;;;;27.33;26.67;;;;;21.49;47.40;101825.00;5028264;28;46107;-83
2022/05/09 10:32:19;;;;;;;;;26.75;26.00;;;;;21.35;47.70;101782.09;5029749;28;45685;-82
2022/05/09 10:34:56;;;;;;;;;22.25;21.75;;;;;21.57;47.16;101813.44;5030121;28;45550;-82
2022/05/09 10:37:38;;;;;;;;;30.25;27.25;;;;;21.19;47.00;101732.94;5030459;28;45915;-83
2022/05/09 10:40:13;;;;;;;;;29.00;27.75;;;;;21.34;46.81;101740.22;5029785;28;45903;-83
2022/05/09 10:42:49;;;;;;;;;28.25;27.00;;;;;21.61;47.23;101785.84;5028756;28;45447;-82
2022/05/09 10:45:24;;;;;;;;;24.00;23.00;;;;;21.92;46.39;101820.81;5029960;28;45403;-82
2022/05/09 10:48:01;;;;;;;;;29.25;26.75;;;;;22.00;46.23;101821.72;5028702;28;46584;-82
2022/05/09 10:50:34;;;;;;;;;27.00;25.25;;;;;21.76;46.09;101757.38;5030148;28;45869;-83
2022/05/09 10:53:06;;;;;;;;;27.25;27.00;;;;;22.13;45.89;101812.00;5029784;28;45627;-82
2022/05/09 10:55:39;;;;;;;;;24.00;24.00;;;;;22.20;46.32;101807.56;5029789;28;45628;-82
2022/05/09 10:58:23;;;;;;;;;25.75;24.75;;;;;22.28;45.54;101806.72;5029829;28;46721;-82
2022/05/09 11:00:54;;;;;;;;;26.00;23.50;;;;;22.09;46.63;101756.63;5029267;28;46236;-83
2022/05/09 11:03:34;;;;;;;;;29.75;25.00;;;;;22.49;45.64;101800.50;5028975;28;45466;-82
2022/05/09 11:06:12;;;;;;;;;21.00;19.25;;;;;22.51;45.78;101789.78;5029614;28;45690;-82
2022/05/09 11:08:59;;;;;;;;;26.00;24.75;;;;;22.71;45.56;101789.81;5028951;28;46566;-82
2022/05/09 11:11:42;;;;;;;;;23.50;22.50;;;;;22.63;45.33;101773.75;5029962;28;45942;-82
2022/05/09 11:14:26;;;;;;;;;28.50;26.25;;;;;22.94;44.48;101798.81;5029878;28;45578;-82
2022/05/09 11:17:19;;;;;;;;;21.00;21.00;;;;;23.00;44.42;101798.81;5028213;28;45529;-82
2022/05/09 11:19:53;;;;;;;;;21.00;21.00;;;;;22.70;44.25;101731.75;5027921;28;46243;-83
2022/05/09 11:22:35;;;;;;;;;19.75;18.75;;;;;23.11;44.16;101789.00;5030230;28;45641;-83
2022/05/09 11:25:28;;;;;;;;;28.25;26.00;;;;;23.17;43.89;101783.63;5027636;28;45434;-83
2022/05/09 11:28:17;;;;;;;;;26.50;23.75;;;;;23.22;44.46;101788.09;5029077;28;45437;-83
2022/05/09 11:30:47;;;;;;;;;21.50;20.25;;;;;23.29;43.51;101782.72;5020002;28;45721;-82
2022/05/09 11:33:30;;;;;;;;;22.75;21.50;;;;;23.17;43.74;101748.75;5029061;28;45932;-82